createdAt,value
2022-08-01T00:00:09.458Z,99706.81
2022-08-01T00:02:39.285Z,99707.22
2022-08-01T00:05:08.597Z,99705.19
2022-08-01T00:07:36.552Z,99707.50
2022-08-01T00:10:08.095Z,99699.22
2022-08-01T00:12:36.871Z,99700.94
2022-08-01T00:15:06.611Z,99707.00
2022-08-01T00:17:37.826Z,99704.75
2022-08-01T00:20:11.096Z,99704.50
2022-08-01T00:22:39.571Z,99699.34
2022-08-01T00:25:09.803Z,99697.72
2022-08-01T00:27:38.084Z,99700.41
2022-08-01T00:30:11.335Z,99693.50
2022-08-01T00:32:46.779Z,99690.94
2022-08-01T00:35:14.647Z,99678.78
2022-08-01T00:37:43.367Z,99680.59
2022-08-01T00:40:11.445Z,99682.56
2022-08-01T00:42:43.799Z,99677.41
2022-08-01T00:45:13.215Z,99677.19
2022-08-01T00:47:41.433Z,99685.56
2022-08-01T00:50:13.203Z,99685.19
2022-08-01T00:52:41.358Z,99686.53
2022-08-01T00:55:10.977Z,99678.31
2022-08-01T00:58:05.160Z,99676.81
2022-08-01T01:00:34.745Z,99686.06
2022-08-01T01:03:03.087Z,99688.50
2022-08-01T01:05:37.443Z,99681.44
2022-08-01T01:08:10.086Z,99689.22
2022-08-01T01:10:47.850Z,99690.41
2022-08-01T01:13:21.977Z,99691.34
2022-08-01T01:15:59.416Z,99691.22
2022-08-01T01:18:47.190Z,99694.28
2022-08-01T01:21:28.747Z,99693.94
2022-08-01T01:24:19.942Z,99700.12
2022-08-01T01:26:53.893Z,99701.97
2022-08-01T01:29:29.537Z,99688.59
2022-08-01T01:32:46.529Z,99698.69
2022-08-01T01:35:29.344Z,99691.13
2022-08-01T01:38:02.709Z,99690.16
2022-08-01T01:40:32.566Z,99691.00
2022-08-01T01:43:01.035Z,99693.69
2022-08-01T01:45:29.688Z,99690.03
2022-08-01T01:47:59.365Z,99691.09
2022-08-01T01:50:27.540Z,99687.97
2022-08-01T01:52:56.616Z,99689.88
2022-08-01T01:55:25.350Z,99686.88
2022-08-01T01:57:53.931Z,99685.41
2022-08-01T02:00:23.408Z,99685.03
2022-08-01T02:02:52.766Z,99686.50
2022-08-01T02:05:21.900Z,99681.16
2022-08-01T02:07:50.731Z,99681.78
2022-08-01T02:10:19.122Z,99672.53
2022-08-01T02:12:50.952Z,99671.66
2022-08-01T02:15:19.715Z,99665.59
2022-08-01T02:17:49.944Z,99668.28
2022-08-01T02:20:19.469Z,99662.53
2022-08-01T02:22:52.327Z,99664.72
2022-08-01T02:26:09.487Z,99654.16
2022-08-01T02:28:43.014Z,99663.84
2022-08-01T02:31:17.401Z,99657.53
2022-08-01T02:33:48.997Z,99666.16
2022-08-01T02:36:30.276Z,99657.44
2022-08-01T02:39:05.371Z,99669.91
2022-08-01T02:41:35.185Z,99667.00
2022-08-01T02:44:04.901Z,99672.34
2022-08-01T02:46:37.818Z,99672.09
2022-08-01T02:49:08.153Z,99665.06
2022-08-01T02:51:37.718Z,99661.91
2022-08-01T02:54:08.868Z,99659.50
2022-08-01T02:56:42.106Z,99656.06
2022-08-01T02:59:14.482Z,99653.88
2022-08-01T03:01:44.581Z,99654.81
2022-08-01T03:04:12.949Z,99648.03
2022-08-01T03:06:42.388Z,99647.06
2022-08-01T03:09:16.674Z,99646.22
2022-08-01T03:11:45.485Z,99646.41
2022-08-01T03:14:14.292Z,99648.69
2022-08-01T03:16:44.086Z,99646.28
2022-08-01T03:19:13.328Z,99645.34
2022-08-01T03:21:42.104Z,99643.87
2022-08-01T03:24:11.546Z,99647.94
2022-08-01T03:26:40.113Z,99644.47
2022-08-01T03:29:12.006Z,99643.91
2022-08-01T03:31:44.021Z,99640.09
2022-08-01T03:34:12.440Z,99639.72
2022-08-01T03:37:07.084Z,99643.06
2022-08-01T03:39:42.163Z,99634.91
2022-08-01T03:42:14.277Z,99633.44
2022-08-01T03:44:51.011Z,99637.56
2022-08-01T03:47:23.350Z,99640.94
2022-08-01T03:49:53.496Z,99640.09
2022-08-01T03:52:22.072Z,99648.41
2022-08-01T03:54:55.118Z,99644.75
2022-08-01T03:57:36.989Z,99649.53
2022-08-01T04:00:10.561Z,99650.94
2022-08-01T04:02:40.132Z,99644.38
2022-08-01T04:05:15.199Z,99659.28
2022-08-01T04:07:56.707Z,99654.84
2022-08-01T04:10:25.911Z,99664.63
2022-08-01T04:12:53.455Z,99658.75
2022-08-01T04:15:21.803Z,99660.56
2022-08-01T04:17:49.708Z,99662.56
2022-08-01T04:20:17.687Z,99664.00
2022-08-01T04:22:47.776Z,99663.78
2022-08-01T04:25:22.097Z,99669.38
2022-08-01T04:27:52.655Z,99664.19
2022-08-01T04:30:26.773Z,99664.53
2022-08-01T04:32:56.685Z,99663.81
2022-08-01T04:36:02.638Z,99660.66
2022-08-01T04:38:18.625Z,99665.19
2022-08-01T04:40:47.390Z,99655.19
2022-08-01T04:43:16.117Z,99650.00
2022-08-01T04:45:51.085Z,99655.53
2022-08-01T04:48:22.916Z,99653.94
2022-08-01T04:50:51.079Z,99659.50
2022-08-01T04:53:23.193Z,99654.31
2022-08-01T04:55:50.766Z,99657.91
2022-08-01T04:58:19.070Z,99663.06
2022-08-01T05:00:52.354Z,99661.66
2022-08-01T05:03:21.182Z,99660.34
2022-08-01T05:05:50.277Z,99655.69
2022-08-01T05:08:18.738Z,99660.06
2022-08-01T05:10:54.025Z,99658.66
2022-08-01T05:13:24.571Z,99658.09
2022-08-01T05:15:53.836Z,99660.63
2022-08-01T05:18:26.207Z,99653.84
2022-08-01T05:20:57.054Z,99653.25
2022-08-01T05:23:42.187Z,99648.97
2022-08-01T05:26:15.038Z,99651.19
2022-08-01T05:28:44.174Z,99649.63
2022-08-01T05:31:15.843Z,99645.22
2022-08-01T05:33:46.421Z,99651.41
2022-08-01T05:36:14.282Z,99647.38
2022-08-01T05:38:41.986Z,99647.78
2022-08-01T05:41:12.161Z,99642.72
2022-08-01T05:43:41.281Z,99645.66
2022-08-01T05:46:09.410Z,99643.84
2022-08-01T05:48:38.254Z,99643.00
2022-08-01T05:51:06.342Z,99647.62
2022-08-01T05:53:40.784Z,99639.22
2022-08-01T05:56:16.242Z,99640.34
2022-08-01T05:58:49.122Z,99646.47
2022-08-01T06:01:21.262Z,99639.50
2022-08-01T06:03:50.093Z,99652.09
2022-08-01T06:06:17.982Z,99646.50
2022-08-01T06:08:47.183Z,99643.13
2022-08-01T06:11:15.986Z,99650.28
2022-08-01T06:13:48.697Z,99648.97
2022-08-01T06:16:18.530Z,99659.41
2022-08-01T06:18:47.382Z,99656.06
2022-08-01T06:21:18.360Z,99661.09
2022-08-01T06:23:47.206Z,99656.47
2022-08-01T06:26:20.432Z,99665.53
2022-08-01T06:28:55.716Z,99656.16
2022-08-01T06:31:31.713Z,99659.50
2022-08-01T06:34:01.581Z,99655.12
2022-08-01T06:36:29.987Z,99659.72
2022-08-01T06:38:58.574Z,99658.63
2022-08-01T06:41:27.277Z,99659.56
2022-08-01T06:43:56.743Z,99655.03
2022-08-01T06:46:30.424Z,99663.13
2022-08-01T06:49:00.691Z,99661.06
2022-08-01T06:51:28.850Z,99665.69
2022-08-01T06:53:56.826Z,99666.53
2022-08-01T06:56:27.212Z,99659.78
2022-08-01T06:59:01.837Z,99658.37
2022-08-01T07:01:35.002Z,99661.25
2022-08-01T07:04:09.219Z,99656.66
2022-08-01T07:06:38.478Z,99652.13
2022-08-01T07:09:09.697Z,99651.69
2022-08-01T07:11:43.078Z,99638.88
2022-08-01T07:14:16.190Z,99645.97
2022-08-01T07:16:44.431Z,99652.25
2022-08-01T07:19:15.065Z,99638.31
2022-08-01T07:21:45.425Z,99646.12
2022-08-01T07:24:21.139Z,99647.00
2022-08-01T07:26:54.004Z,99644.69
2022-08-01T07:29:26.219Z,99645.09
2022-08-01T07:31:55.189Z,99642.34
2022-08-01T07:34:24.546Z,99647.12
2022-08-01T07:36:55.218Z,99650.28
2022-08-01T07:39:26.040Z,99646.94
2022-08-01T07:42:06.324Z,99655.75
2022-08-01T07:44:39.071Z,99646.12
2022-08-01T07:47:07.969Z,99648.59
2022-08-01T07:49:40.291Z,99652.41
2022-08-01T07:52:09.202Z,99652.41
2022-08-01T07:54:40.565Z,99650.25
2022-08-01T07:59:49.314Z,99657.56
2022-08-01T08:02:18.864Z,99656.44
2022-08-01T08:04:50.662Z,99656.59
2022-08-01T08:07:18.787Z,99658.34
2022-08-01T08:09:51.209Z,99653.81
2022-08-01T08:12:28.744Z,99655.56
2022-08-01T08:15:02.319Z,99658.28
2022-08-01T08:17:35.536Z,99658.72
2022-08-01T08:20:09.373Z,99660.53
2022-08-01T08:22:38.814Z,99662.59
2022-08-01T08:25:08.170Z,99664.88
2022-08-01T08:27:39.114Z,99669.12
2022-08-01T08:30:12.662Z,99671.22
2022-08-01T08:32:45.580Z,99677.22
2022-08-01T08:35:22.988Z,99670.88
2022-08-01T08:37:56.088Z,99678.16
2022-08-01T08:40:31.229Z,99674.88
2022-08-01T08:43:09.081Z,99674.09
2022-08-01T08:45:59.703Z,99680.00
2022-08-01T08:48:29.235Z,99684.72
2022-08-01T08:51:00.086Z,99680.75
2022-08-01T08:53:35.064Z,99689.31
2022-08-01T08:56:04.942Z,99690.41
2022-08-01T08:58:38.861Z,99688.72
2022-08-01T09:01:10.076Z,99693.34
2022-08-01T09:03:42.742Z,99684.03
2022-08-01T09:06:12.199Z,99688.56
2022-08-01T09:08:41.245Z,99684.47
2022-08-01T09:11:09.709Z,99685.59
2022-08-01T09:13:38.513Z,99685.31
2022-08-01T09:16:20.771Z,99694.78
2022-08-01T09:18:54.363Z,99690.63
2022-08-01T09:21:27.758Z,99684.22
2022-08-01T09:23:59.901Z,99688.44
2022-08-01T09:26:34.281Z,99689.69
2022-08-01T09:29:10.344Z,99685.59
2022-08-01T09:31:47.328Z,99688.84
2022-08-01T09:34:26.698Z,99681.41
2022-08-01T09:36:57.821Z,99685.00
2022-08-01T09:39:42.028Z,99682.00
2022-08-01T09:42:29.584Z,99674.50
2022-08-01T09:45:02.853Z,99671.31
2022-08-01T09:47:39.269Z,99675.81
2022-08-01T09:50:11.376Z,99675.28
2022-08-01T09:52:40.261Z,99672.28
2022-08-01T09:55:10.878Z,99669.47
2022-08-01T09:57:40.146Z,99673.41
2022-08-01T10:00:35.652Z,99665.94
2022-08-01T10:03:25.750Z,99675.84
2022-08-01T10:05:58.501Z,99670.19
2022-08-01T10:08:28.507Z,99671.94
2022-08-01T10:11:20.241Z,99667.19
2022-08-01T10:13:50.154Z,99663.88
2022-08-01T10:16:18.970Z,99663.94
2022-08-01T10:18:51.162Z,99669.50
2022-08-01T10:21:56.575Z,99673.97
2022-08-01T10:24:18.834Z,99671.50
2022-08-01T10:27:06.123Z,99668.22
2022-08-01T10:29:46.212Z,99659.72
2022-08-01T10:32:29.024Z,99664.03
2022-08-01T10:34:58.396Z,99655.75
2022-08-01T10:37:28.779Z,99655.50
2022-08-01T10:40:27.314Z,99655.72
2022-08-01T10:42:48.161Z,99651.09
2022-08-01T10:45:19.323Z,99652.34
2022-08-01T10:47:55.619Z,99652.53
2022-08-01T10:53:16.891Z,99653.81
2022-08-01T10:56:02.960Z,99641.38
2022-08-01T10:58:42.798Z,99642.22
2022-08-01T11:01:25.565Z,99638.78
2022-08-01T11:04:17.645Z,99645.41
2022-08-01T11:06:55.164Z,99645.41
2022-08-01T11:09:36.161Z,99639.09
2022-08-01T11:12:23.361Z,99642.84
2022-08-01T11:15:08.201Z,99636.97
2022-08-01T11:17:54.614Z,99630.63
2022-08-01T11:20:24.070Z,99618.13
2022-08-01T11:23:03.129Z,99614.31
2022-08-01T11:26:03.353Z,99623.16
2022-08-01T11:28:40.635Z,99617.16
2022-08-01T11:31:30.255Z,99618.22
2022-08-01T11:34:13.128Z,99617.63
2022-08-01T11:37:30.381Z,99617.34
2022-08-01T11:40:17.116Z,99616.97
2022-08-01T11:42:45.591Z,99614.72
2022-08-01T11:45:20.845Z,99619.63
2022-08-01T11:47:51.883Z,99611.66
2022-08-01T11:50:32.352Z,99609.06
2022-08-01T11:53:08.836Z,99609.25
2022-08-01T11:55:47.645Z,99608.84
2022-08-01T12:01:07.228Z,99607.28
2022-08-01T12:03:44.432Z,99612.72
2022-08-01T12:06:15.130Z,99616.12
2022-08-01T12:08:46.329Z,99618.44
2022-08-01T12:11:14.438Z,99613.63
2022-08-01T12:13:47.956Z,99622.09
2022-08-01T12:18:52.459Z,99613.59
2022-08-01T12:21:23.126Z,99622.84
2022-08-01T12:24:02.276Z,99627.63
2022-08-01T12:26:43.537Z,99615.59
2022-08-01T12:29:41.747Z,99615.88
2022-08-01T12:32:27.754Z,99612.97
2022-08-01T12:35:18.411Z,99609.47
2022-08-01T12:37:50.198Z,99603.13
2022-08-01T12:40:29.259Z,99607.88
2022-08-01T12:43:01.574Z,99613.22
2022-08-01T12:45:56.963Z,99604.00
2022-08-01T12:51:04.254Z,99606.72
2022-08-01T12:53:40.381Z,99600.03
2022-08-01T12:56:12.120Z,99593.09
2022-08-01T12:58:40.667Z,99594.06
2022-08-01T13:01:14.504Z,99593.44
2022-08-01T13:04:06.198Z,99596.72
2022-08-01T13:06:41.169Z,99591.03
2022-08-01T13:09:16.185Z,99586.12
2022-08-01T13:11:59.022Z,99584.88
2022-08-01T13:14:41.876Z,99591.63
2022-08-01T13:17:15.642Z,99586.53
2022-08-01T13:19:46.326Z,99586.12
2022-08-01T13:22:15.406Z,99589.53
2022-08-01T13:24:45.377Z,99589.09
2022-08-01T13:27:24.886Z,99592.59
2022-08-01T13:29:56.178Z,99584.88
2022-08-01T13:32:29.972Z,99584.66
2022-08-01T13:35:08.765Z,99586.12
2022-08-01T13:37:39.623Z,99580.66
2022-08-01T13:40:13.256Z,99586.34
2022-08-01T13:42:44.322Z,99588.38
2022-08-01T13:45:15.218Z,99587.25
2022-08-01T13:48:11.847Z,99574.19
2022-08-01T13:50:34.541Z,99568.06
2022-08-01T13:53:03.071Z,99576.44
2022-08-01T13:59:52.493Z,99561.47
2022-08-01T14:02:22.263Z,99568.06
2022-08-01T14:05:03.191Z,99566.16
2022-08-01T14:07:38.387Z,99570.41
2022-08-01T14:10:19.778Z,99572.13
2022-08-01T14:12:50.353Z,99562.88
2022-08-01T14:18:10.991Z,99562.16
2022-08-01T14:20:45.102Z,99562.56
2022-08-01T14:23:13.664Z,99560.03
2022-08-01T14:26:04.151Z,99557.56
2022-08-01T14:28:35.702Z,99555.25
2022-08-01T14:31:09.342Z,99564.66
2022-08-01T14:33:39.678Z,99565.13
2022-08-01T14:36:30.579Z,99563.84
2022-08-01T14:39:01.483Z,99563.97
2022-08-01T14:41:33.908Z,99566.66
2022-08-01T14:44:05.049Z,99567.31
2022-08-01T14:46:36.703Z,99564.78
2022-08-01T14:49:11.991Z,99560.41
2022-08-01T14:51:43.328Z,99561.34
2022-08-01T14:54:14.555Z,99568.06
2022-08-01T14:56:47.333Z,99576.19
2022-08-01T14:59:21.661Z,99562.94
2022-08-01T15:01:53.281Z,99566.06
2022-08-01T15:04:29.130Z,99566.69
2022-08-01T15:07:04.235Z,99571.66
2022-08-01T15:09:34.454Z,99567.28
2022-08-01T15:12:04.828Z,99564.78
2022-08-01T15:14:54.327Z,99566.59
2022-08-01T15:17:26.164Z,99577.22
2022-08-01T15:19:55.401Z,99580.91
2022-08-01T15:22:27.188Z,99573.28
2022-08-01T15:24:58.345Z,99569.06
2022-08-01T15:27:33.672Z,99572.81
2022-08-01T15:30:05.412Z,99577.19
2022-08-01T15:32:35.900Z,99580.84
2022-08-01T15:35:07.396Z,99581.94
2022-08-01T15:37:43.400Z,99568.94
2022-08-01T15:42:47.302Z,99580.91
2022-08-01T15:45:44.566Z,99581.19
2022-08-01T15:48:07.018Z,99579.16
2022-08-01T15:50:38.709Z,99584.81
2022-08-01T15:53:09.504Z,99593.41
2022-08-01T15:55:41.334Z,99582.84
2022-08-01T15:58:11.818Z,99586.34
2022-08-01T16:00:42.334Z,99584.91
2022-08-01T16:03:10.914Z,99571.53
2022-08-01T16:05:44.581Z,99587.97
2022-08-01T16:10:57.277Z,99572.44
2022-08-01T16:13:28.133Z,99574.25
2022-08-01T16:16:06.207Z,99581.09
2022-08-01T16:18:35.085Z,99587.84
2022-08-01T16:21:09.260Z,99592.91
2022-08-01T16:23:41.398Z,99587.13
2022-08-01T16:26:11.783Z,99587.47
2022-08-01T16:29:00.301Z,99583.69
2022-08-01T16:34:13.866Z,99578.69
2022-08-01T16:36:50.385Z,99587.16
2022-08-01T16:39:23.047Z,99587.03
2022-08-01T16:41:55.124Z,99585.25
2022-08-01T16:44:34.254Z,99587.28
2022-08-01T16:47:08.566Z,99588.94
2022-08-01T16:49:40.786Z,99582.31
2022-08-01T16:52:18.863Z,99588.69
2022-08-01T16:54:54.310Z,99590.63
2022-08-01T16:57:26.458Z,99585.12
2022-08-01T16:59:57.505Z,99591.53
2022-08-01T17:02:33.480Z,99590.53
2022-08-01T17:05:08.522Z,99588.50
2022-08-01T17:07:45.328Z,99589.69
2022-08-01T17:10:15.422Z,99592.03
2022-08-01T17:12:49.214Z,99586.66
2022-08-01T17:15:23.426Z,99597.78
2022-08-01T17:17:54.500Z,99591.88
2022-08-01T17:20:31.571Z,99595.22
2022-08-01T17:23:02.605Z,99604.09
2022-08-01T17:25:39.433Z,99601.28
2022-08-01T17:28:10.606Z,99596.13
2022-08-01T17:30:41.308Z,99604.03
2022-08-01T17:33:17.514Z,99607.81
2022-08-01T17:35:52.372Z,99612.34
2022-08-01T17:38:27.746Z,99608.94
2022-08-01T17:41:02.611Z,99611.69
2022-08-01T17:43:32.418Z,99616.44
2022-08-01T17:46:01.268Z,99621.56
2022-08-01T17:48:32.503Z,99612.81
2022-08-01T17:51:08.473Z,99611.94
2022-08-01T17:53:37.890Z,99611.16
2022-08-01T17:56:27.128Z,99615.56
2022-08-01T17:59:02.645Z,99616.59
2022-08-01T18:01:31.439Z,99626.94
2022-08-01T18:04:06.323Z,99626.56
2022-08-01T18:06:38.239Z,99629.25
2022-08-01T18:09:44.184Z,99624.75
2022-08-01T18:12:18.353Z,99627.87
2022-08-01T18:14:49.346Z,99627.22
2022-08-01T18:17:30.523Z,99628.31
2022-08-01T18:20:00.250Z,99632.28
2022-08-01T18:22:33.219Z,99632.94
2022-08-01T18:25:08.555Z,99634.81
2022-08-01T18:28:29.187Z,99635.66
2022-08-01T18:30:32.453Z,99633.28
2022-08-01T18:33:01.430Z,99640.00
2022-08-01T18:35:52.312Z,99647.47
2022-08-01T18:38:29.340Z,99649.03
2022-08-01T18:41:06.011Z,99652.50
2022-08-01T18:43:37.196Z,99653.22
2022-08-01T18:46:07.204Z,99658.28
2022-08-01T18:48:44.250Z,99663.81
2022-08-01T18:51:17.512Z,99669.75
2022-08-01T18:53:54.238Z,99661.38
2022-08-01T19:01:42.352Z,99677.50
2022-08-01T19:04:11.456Z,99676.47
2022-08-01T19:06:43.400Z,99672.78
2022-08-01T19:09:20.762Z,99673.50
2022-08-01T19:12:05.165Z,99680.34
2022-08-01T19:14:42.441Z,99698.75
2022-08-01T19:17:17.291Z,99699.53
2022-08-01T19:19:55.934Z,99692.66
2022-08-01T19:25:10.358Z,99699.09
2022-08-01T19:27:51.766Z,99715.09
2022-08-01T19:30:21.494Z,99716.97
2022-08-01T19:32:56.307Z,99709.72
2022-08-01T19:35:26.282Z,99717.53
2022-08-01T19:38:07.534Z,99713.97
2022-08-01T19:40:39.430Z,99717.88
2022-08-01T19:43:21.661Z,99717.53
2022-08-01T19:45:56.781Z,99719.59
2022-08-01T19:48:35.902Z,99717.22
2022-08-01T19:53:55.384Z,99722.31
2022-08-01T19:56:33.497Z,99724.19
2022-08-01T19:59:22.656Z,99723.84
2022-08-01T20:02:06.294Z,99722.81
2022-08-01T20:04:35.855Z,99723.34
2022-08-01T20:07:12.485Z,99711.50
2022-08-01T20:09:50.309Z,99715.41
2022-08-01T20:12:30.540Z,99718.28
2022-08-01T20:15:08.304Z,99720.66
2022-08-01T20:17:45.594Z,99719.28
2022-08-01T20:20:23.659Z,99722.66
2022-08-01T20:22:57.118Z,99720.28
2022-08-01T20:25:40.246Z,99724.34
2022-08-01T20:28:15.276Z,99718.94
2022-08-01T20:33:37.226Z,99716.78
2022-08-01T20:36:12.330Z,99725.91
2022-08-01T20:38:55.340Z,99719.72
2022-08-01T20:41:27.134Z,99730.50
2022-08-01T20:43:59.498Z,99721.78
2022-08-01T20:46:36.442Z,99725.94
2022-08-01T20:49:10.276Z,99729.00
2022-08-01T20:51:42.514Z,99731.50
2022-08-01T20:54:18.271Z,99732.19
2022-08-01T20:57:04.925Z,99738.59
2022-08-01T20:59:56.829Z,99735.38
2022-08-01T21:02:38.073Z,99739.22
2022-08-01T21:05:13.245Z,99738.28
2022-08-01T21:10:26.144Z,99736.47
2022-08-01T21:13:19.062Z,99738.72
2022-08-01T21:16:12.596Z,99737.56
2022-08-01T21:19:19.667Z,99738.72
2022-08-01T21:22:17.678Z,99737.53
2022-08-01T21:25:03.928Z,99736.47
2022-08-01T21:27:34.378Z,99738.69
2022-08-01T21:30:10.224Z,99740.19
2022-08-01T21:32:43.265Z,99735.22
2022-08-01T21:35:16.241Z,99736.91
2022-08-01T21:37:52.569Z,99733.06
2022-08-01T21:40:23.730Z,99732.56
2022-08-01T21:42:53.365Z,99731.41
2022-08-01T21:45:24.531Z,99738.62
2022-08-01T21:47:55.306Z,99737.97
2022-08-01T21:50:24.802Z,99738.88
2022-08-01T21:53:04.976Z,99741.16
2022-08-01T21:55:51.738Z,99740.84
2022-08-01T21:58:31.932Z,99747.94
2022-08-01T22:01:52.430Z,99736.06
2022-08-01T22:04:37.415Z,99748.56
2022-08-01T22:07:09.860Z,99739.53
2022-08-01T22:09:39.984Z,99743.16
2022-08-01T22:12:08.759Z,99742.06
2022-08-01T22:14:40.624Z,99738.34
2022-08-01T22:17:13.525Z,99740.84
2022-08-01T22:19:45.484Z,99738.44
2022-08-01T22:22:45.031Z,99744.88
2022-08-01T22:25:04.924Z,99741.84
2022-08-01T22:28:06.019Z,99743.19
2022-08-01T22:30:22.550Z,99744.50
2022-08-01T22:33:15.525Z,99745.41
2022-08-01T22:35:43.616Z,99748.81
2022-08-01T22:38:13.294Z,99748.53
2022-08-01T22:40:50.299Z,99756.75
2022-08-01T22:43:31.143Z,99763.91
2022-08-01T22:46:05.718Z,99765.59
2022-08-01T22:48:44.966Z,99761.19
2022-08-01T22:51:27.156Z,99762.88
2022-08-01T22:54:05.390Z,99764.72
2022-08-01T22:56:39.309Z,99760.47
2022-08-01T22:59:14.367Z,99754.47
2022-08-01T23:53:49.009Z,99772.47
2022-08-01T23:56:21.911Z,99766.47
2022-08-01T23:58:52.954Z,99770.75
